Galesburg, IL

10:46 PM CST on December 14, 2017 (GMT -0600)
Galesburg Municipal

Weather History for KGBG - February, 2013

Change the Weather History Date:

Monday, February 18, 2013

  Actual Average Record
Temperature  
Mean Temperature 37 °F -  
Max Temperature 52 °F 38 °F 66 °F (2017)
Min Temperature 21 °F 21 °F -10 °F (1958)
Degree Days  
Heating Degree Days 28    
Moisture  
Dew Point 31 °F    
Average Humidity 79    
Maximum Humidity 100    
Minimum Humidity 58    
Precipitation  
Precipitation 0.43 in - - ()
Sea Level Pressure  
Sea Level Pressure 29.66 in    
Wind  
Wind Speed 13 mph (SSW)    
Max Wind Speed 25 mph    
Max Gust Speed 34 mph    
Visibility 8 miles    
Events Rain , Snow    
Averages and records for this station are not official NWS values.
T = Trace of Precipitation, MM = Missing Value Source: NWS Daily Summary

Daily Weather History Graph

Daily Weather History Graph

Search for Another Location

Airport or City:

Trip Planner

Search our weather history database for the weather conditions in past years. The results will help you decide how hot, cold, wet, or windy it might be!

Date:

Astronomy

Feb. 18, 2013 Rise Set
Actual Time 6:51 AM CST 5:40 PM CST
Civil Twilight 6:23 AM CST 6:08 PM CST
Nautical Twilight 5:51 AM CST 6:40 PM CST
Astronomical Twilight 5:19 AM CST 7:12 PM CST
Moon 11:24 AM CST (2/18) 1:32 AM CST (2/18)
Length of Visible Light 11h 44m
Length of Day
10h 48m
First Quarter, 58% of the Moon is Illuminated
Feb 18
First Quarter
Feb 25
Full
Mar 4
Last Quarter
Mar 11
New
Mar 19
First Quarter

Hourly Weather History & Observations

Time (CST) Temp. Windchill Dew Point Humidity Pressure Visibility Wind Dir Wind Speed Gust Speed Precip Events Conditions
12:15 AM 32.4 °F 23.5 °F 23.9 °F 71% 29.85 in 10.0 mi SE 11.5 mph 16.1 mph N/A   Clear
12:35 AM 32.5 °F 24.8 °F 24.4 °F 72% 29.84 in 10.0 mi SE 9.2 mph 16.1 mph N/A   Clear
12:55 AM 32.9 °F 23.7 °F 24.6 °F 72% 29.83 in 10.0 mi SE 12.7 mph 16.1 mph N/A   Clear
1:15 AM 32.9 °F 24.1 °F 24.6 °F 72% 29.82 in 10.0 mi SE 11.5 mph 17.3 mph N/A   Clear
1:35 AM 32.9 °F 24.7 °F 25.2 °F 73% 29.80 in 10.0 mi SE 10.4 mph 16.1 mph N/A   Clear
1:55 AM 33.1 °F 25.5 °F 25.5 °F 74% 29.80 in 10.0 mi SE 9.2 mph 18.4 mph N/A   Clear
2:15 AM 32.9 °F 25.3 °F 25.7 °F 75% 29.78 in 10.0 mi SE 9.2 mph - N/A   Clear
2:35 AM 32.9 °F 25.9 °F 26.2 °F 76% 29.78 in 10.0 mi SSE 8.1 mph - N/A   Clear
2:55 AM 33.1 °F 26.1 °F 26.6 °F 77% 29.76 in 10.0 mi SSE 8.1 mph - N/A   Clear
3:15 AM 33.3 °F 25.1 °F 27.0 °F 78% 29.75 in 10.0 mi SE 10.4 mph - N/A   Clear
3:35 AM 33.3 °F 24.1 °F 27.0 °F 78% 29.74 in 10.0 mi SSE 12.7 mph 17.3 mph N/A   Clear
3:55 AM 32.9 °F 24.1 °F 27.0 °F 79% 29.73 in 10.0 mi SSE 11.5 mph - N/A   Clear
4:15 AM 32.9 °F 24.7 °F 26.8 °F 78% 29.73 in 10.0 mi SE 10.4 mph 16.1 mph N/A   Clear
4:35 AM 32.9 °F 24.7 °F 27.0 °F 79% 29.72 in 10.0 mi SSE 10.4 mph - N/A   Clear
4:55 AM 32.5 °F 24.8 °F 27.1 °F 80% 29.71 in 10.0 mi SSE 9.2 mph - N/A   Clear
5:15 AM 32.9 °F 25.3 °F 27.3 °F 80% 29.71 in 10.0 mi SSE 9.2 mph - N/A   Clear
5:35 AM 32.9 °F 25.3 °F 27.5 °F 81% 29.70 in 10.0 mi SE 9.2 mph - N/A   Clear
5:55 AM 32.9 °F 25.3 °F 27.9 °F 82% 29.69 in 10.0 mi SSE 9.2 mph - N/A   Clear
6:15 AM 33.3 °F 25.7 °F 28.2 °F 82% 29.69 in 10.0 mi SSE 9.2 mph - N/A   Clear
6:35 AM 33.3 °F 25.7 °F 28.4 °F 82% 29.68 in 10.0 mi SSE 9.2 mph 16.1 mph N/A   Clear
6:55 AM 33.3 °F 25.7 °F 28.9 °F 84% 29.68 in 10.0 mi SSE 9.2 mph - N/A   Clear
7:15 AM 33.6 °F 26.8 °F 29.3 °F 84% 29.67 in 10.0 mi SE 8.1 mph - N/A   Clear
7:35 AM 34.5 °F 27.3 °F 29.8 °F 83% 29.67 in 10.0 mi SSE 9.2 mph - N/A   Clear
7:55 AM 35.6 °F 28.6 °F 30.6 °F 82% 29.67 in 10.0 mi SSE 9.2 mph - N/A   Clear
8:15 AM 37.9 °F 30.9 °F 31.6 °F 78% 29.67 in 10.0 mi SSE 10.4 mph - N/A   Clear
8:35 AM 39.7 °F 32.7 °F 32.0 °F 74% 29.67 in 10.0 mi South 11.5 mph 17.3 mph N/A   Clear
8:55 AM 43.2 °F 36.2 °F 33.1 °F 68% 29.66 in 10.0 mi South 13.8 mph 20.7 mph N/A   Clear
9:15 AM 45.7 °F 38.3 °F 34.0 °F 64% 29.65 in 10.0 mi South 18.4 mph 26.5 mph N/A   Clear
9:35 AM 46.4 °F 39.5 °F 34.3 °F 63% 29.65 in 10.0 mi South 17.3 mph 25.3 mph N/A   Clear
9:55 AM 48.7 °F - 35.2 °F 60% 29.65 in 10.0 mi South 20.7 mph 26.5 mph N/A   Clear
10:15 AM 50.0 °F - 35.8 °F 58% 29.64 in 10.0 mi South 21.9 mph 28.8 mph N/A   Clear
10:35 AM 51.1 °F - 36.7 °F 58% 29.63 in 10.0 mi South 18.4 mph 25.3 mph N/A   Scattered Clouds
10:55 AM 51.4 °F - 37.4 °F 59% 29.63 in 10.0 mi South 17.3 mph 23.0 mph N/A   Mostly Cloudy
11:15 AM 52.2 °F - 37.9 °F 58% 29.62 in 10.0 mi South 18.4 mph 21.9 mph N/A   Overcast
11:35 AM 52.7 °F - 38.7 °F 59% 29.61 in 10.0 mi South 18.4 mph 23.0 mph N/A   Overcast
11:55 AM 51.6 °F - 38.7 °F 61% 29.60 in 10.0 mi South 15.0 mph 19.6 mph N/A   Overcast
12:15 PM 51.1 °F - 39.2 °F 64% 29.59 in 10.0 mi South 15.0 mph - N/A   Overcast
12:35 PM 51.1 °F - 39.4 °F 64% 29.58 in 10.0 mi South 12.7 mph 17.3 mph N/A   Overcast
12:55 PM 50.9 °F - 39.6 °F 65% 29.57 in 10.0 mi South 8.1 mph - N/A   Overcast
1:15 PM 50.7 °F - 41.0 °F 69% 29.56 in 10.0 mi South 11.5 mph 18.4 mph N/A Rain Light Rain
1:35 PM 50.9 °F - 41.0 °F 69% 29.55 in 10.0 mi South 11.5 mph - N/A   Overcast
1:55 PM 50.7 °F - 41.4 °F 70% 29.54 in 10.0 mi South 11.5 mph 21.9 mph N/A Rain Light Rain
2:15 PM 48.7 °F - 42.6 °F 79% 29.53 in 10.0 mi South 9.2 mph 16.1 mph N/A Rain Rain
2:35 PM 48.4 °F - 44.1 °F 85% 29.52 in 10.0 mi South 11.5 mph - 0.01 in Rain Rain
2:55 PM 47.7 °F - 44.8 °F 90% 29.51 in 5.0 mi South 8.1 mph 16.1 mph 0.04 in Rain Heavy Rain
3:15 PM 47.3 °F - 45.5 °F 93% 29.49 in 10.0 mi South 4.6 mph - 0.01 in Rain Rain
3:35 PM 45.9 °F 43.6 °F 45.9 °F 100% 29.48 in 7.0 mi West 4.6 mph - 0.02 in Rain Light Rain
3:55 PM 46.4 °F 40.4 °F 46.4 °F 100% 29.48 in 4.0 mi West 13.8 mph 19.6 mph 0.08 in Rain Heavy Rain
4:15 PM 40.6 °F 32.3 °F 40.6 °F 100% 29.49 in 1.0 mi WNW 16.1 mph 25.3 mph 0.11 in Rain Rain
4:35 PM 39.2 °F 30.8 °F 39.2 °F 100% 29.49 in 5.0 mi NW 15.0 mph 18.4 mph 0.13 in Rain Rain
4:55 PM 39.2 °F 30.8 °F 39.2 °F 100% 29.52 in 2.0 mi West 15.0 mph 23.0 mph N/A Rain Heavy Rain
5:15 PM 37.4 °F 27.8 °F 36.5 °F 97% 29.53 in 1.8 mi WNW 17.3 mph 27.6 mph 0.05 in Rain Rain
5:35 PM 33.1 °F 23.4 °F 33.1 °F 100% 29.56 in 0.8 mi WNW 13.8 mph - 0.11 in Snow Light Snow
5:55 PM - - - N/A% 29.56 in 0.8 mi WNW 10.4 mph - 0.14 in   Unknown
6:15 PM - - - N/A% 29.56 in 0.8 mi NW 10.4 mph - 0.03 in   Unknown
6:35 PM - - - N/A% 29.58 in 0.8 mi WNW 15.0 mph 20.7 mph 0.04 in   Unknown
6:55 PM - - - N/A% 29.60 in 1.2 mi WNW 18.4 mph 27.6 mph 0.04 in   Overcast
7:15 PM 31.6 °F 20.0 °F 31.5 °F 99% 29.62 in 1.8 mi WNW 18.4 mph 31.1 mph N/A   Overcast
7:55 PM 29.8 °F 17.0 °F 27.3 °F 90% 29.65 in 10.0 mi West 20.7 mph 24.2 mph N/A Snow Light Snow
8:15 PM 28.4 °F 14.1 °F 25.5 °F 89% 29.64 in 5.0 mi WNW 24.2 mph 34.5 mph N/A Snow Light Snow
8:35 PM 27.5 °F 13.2 °F 24.1 °F 87% 29.66 in 10.0 mi WNW 23.0 mph 28.8 mph N/A   Overcast
8:55 PM 26.2 °F 11.2 °F 22.8 °F 87% 29.69 in 7.0 mi WNW 24.2 mph 31.1 mph N/A   Overcast
9:15 PM 25.9 °F 10.4 °F 22.6 °F 88% 29.71 in 10.0 mi WNW 25.3 mph 31.1 mph N/A   Unknown
9:55 PM 23.9 °F 8.8 °F 19.4 °F 83% 29.75 in 10.0 mi WNW 21.9 mph 31.1 mph N/A   Overcast
10:15 PM 23.9 °F 9.5 °F 19.6 °F 84% 29.75 in 10.0 mi WNW 19.6 mph - N/A   Overcast
10:35 PM 23.7 °F 8.5 °F 18.9 °F 82% 29.75 in 10.0 mi West 21.9 mph 27.6 mph N/A   Overcast
10:55 PM 23.2 °F 8.2 °F 18.3 °F 82% 29.76 in 10.0 mi WNW 20.7 mph 26.5 mph N/A   Overcast
11:15 PM 23.0 °F 9.6 °F 18.1 °F 82% 29.77 in 10.0 mi West 16.1 mph 24.2 mph N/A   Overcast
11:35 PM 22.6 °F 6.4 °F 17.8 °F 82% 29.78 in 10.0 mi West 24.2 mph 29.9 mph N/A   Overcast
11:55 PM 21.2 °F 4.2 °F 15.8 °F 80% 29.79 in 10.0 mi West 25.3 mph 32.2 mph N/A   Overcast